Lemoore Naval Air Station (Reeves Field) Airport
KNLC : now visible

Airfield :











YOU CAN JOIN US ON...

 
LOGIN :

Register | Disclaimer

   EN    FR    IT 

 









Legend :    VFR   Marginal VFR   IFR   Intensive IFR   Very Intensive IFR
Visi :
Ceiling :
>= 8 km
>= 3000ft
5 to 8 km
1000 to 3000 ft
1500m to 5 km
500 to 1000 ft
800 to 1500m
200 to 500 ft
< 800m
< 200 ft
Symbols :   Thunderstorms  Fog  Heavy snow  Heavy precipitations  Wind > 20 kt






- Airport Elevation : 232 ft


KNLC - Lemoore Naval Air Station (Reeves Field)

CURRENT METAR :
  • 250356Z 33009KT 10SM CLR 27/13 A2990 RMK AO2 SLP122 RH/39 T02720128

EXPIRED METARs :
  • 250256Z 35014KT 10SM CLR 30/12 A2989 RMK AO2 SLP119 RH/33 T03000122 53005
  • 250156Z 36011KT 10SM CLR 32/12 A2987 RMK AO2 SLP113 RH/28 T03170117

TAF TAF KNLC
Valid from the 24 at 23:00 until the 25 at 23:00 UTC


2423/2523 34010KT 9999 SKC 533009 533902 QNH2982INS
TEMPO 2500/2506 30011KT
FM250600 31010KT 9999 SKC 500000 QNH2980INS T16/2514Z T36/2523Z FS30012
KZOA FIR / North America



MET'MAP, your aeronautical weather chart ! - Copyright ORBIFLY December 2007 - Disclaimer

ORBIFLY MET'MAP TEAM :

Programming & Development : Alexandra Zaïnal
Concept & original design : Baudouin d'Aumeries
Assistance for programming : Marc-Olivier Méhu
Technical & hardware support : Manuel Goepfert

Contact : metmap@orbifly.com




SOURCES & CREDITS :

   NOAA       Earth
Advisory